Time;durP1;ratioP1;P1;durP2;ratioP2;P2;SDS_P1;SDS_P2;PMS_P1;PMS_P2;Temp;Humidity;BMP_temperature;BMP_pressure;BME280_temperature;BME280_humidity;BME280_pressure;Samples;Min_cycle;Max_cycle;Signal;HPM_P1;HPM_P2
2021/09/12 00:00:45;;;;;;;5.72;5.05;;;16.70;99.90;;;;;;5034052;28;20021;-64
2021/09/12 00:03:11;;;;;;;5.43;4.38;;;16.70;99.90;;;;;;5033334;28;20105;-64
2021/09/12 00:05:37;;;;;;;6.22;4.15;;;16.60;99.90;;;;;;5034379;28;20032;-64
2021/09/12 00:08:03;;;;;;;7.05;4.40;;;16.60;99.90;;;;;;5033956;28;20508;-65
2021/09/12 00:10:29;;;;;;;6.32;4.70;;;16.60;99.90;;;;;;5032564;28;20132;-65
2021/09/12 00:12:56;;;;;;;6.90;5.03;;;16.60;99.90;;;;;;5033904;28;20123;-65
2021/09/12 00:15:22;;;;;;;7.80;5.20;;;16.60;99.90;;;;;;5033672;28;20474;-65
2021/09/12 00:17:48;;;;;;;6.40;4.57;;;16.60;99.90;;;;;;5033682;28;20108;-65
2021/09/12 00:20:14;;;;;;;9.23;4.78;;;16.50;99.90;;;;;;5033825;28;20065;-65
2021/09/12 00:22:40;;;;;;;7.65;4.93;;;16.50;99.90;;;;;;5033597;28;20096;-65
2021/09/12 00:25:06;;;;;;;6.35;4.78;;;16.50;99.90;;;;;;5032292;28;20504;-65
2021/09/12 00:27:32;;;;;;;8.35;5.47;;;16.50;99.90;;;;;;5033373;28;20029;-65
2021/09/12 00:29:58;;;;;;;6.15;4.75;;;16.50;99.90;;;;;;5032250;28;20034;-65
2021/09/12 00:32:24;;;;;;;6.28;4.85;;;16.50;99.90;;;;;;5032179;28;20482;-65
2021/09/12 00:34:50;;;;;;;7.00;5.22;;;16.40;99.90;;;;;;5033513;28;20033;-65
2021/09/12 00:37:15;;;;;;;7.72;5.50;;;16.50;99.90;;;;;;5033569;28;20056;-65
2021/09/12 00:39:41;;;;;;;7.53;5.43;;;16.40;99.90;;;;;;5033205;28;20417;-66
2021/09/12 00:42:07;;;;;;;7.32;5.80;;;16.50;99.90;;;;;;5033440;28;20033;-65
2021/09/12 00:44:32;;;;;;;11.05;6.10;;;16.40;99.90;;;;;;5033602;28;20024;-65
2021/09/12 00:47:08;;;;;;;9.73;6.25;;;16.40;99.90;;;;;;5033414;28;20021;-65
2021/09/12 00:49:33;;;;;;;9.38;5.65;;;16.30;99.90;;;;;;5033296;28;20021;-64
2021/09/12 00:52:01;;;;;;;7.60;5.43;;;16.40;99.90;;;;;;5033315;28;20103;-63
2021/09/12 00:54:29;;;;;;;7.78;5.43;;;16.40;99.90;;;;;;5033476;28;20441;-64
2021/09/12 00:56:56;;;;;;;7.20;5.63;;;16.30;99.90;;;;;;5033381;28;20401;-65
2021/09/12 00:59:22;;;;;;;7.63;5.55;;;16.30;99.90;;;;;;5033207;28;20033;-65
2021/09/12 01:01:49;;;;;;;10.82;6.25;;;16.30;99.90;;;;;;5031777;28;20028;-65
2021/09/12 01:04:15;;;;;;;8.95;6.03;;;16.30;99.90;;;;;;5033434;28;20018;-64
2021/09/12 01:06:42;;;;;;;7.22;5.45;;;16.30;99.90;;;;;;5032965;28;20028;-65
2021/09/12 01:09:08;;;;;;;8.52;5.30;;;16.30;99.90;;;;;;5031734;28;20029;-65
2021/09/12 01:11:34;;;;;;;6.43;4.97;;;16.30;99.90;;;;;;5033252;28;20025;-65
2021/09/12 01:13:59;;;;;;;7.30;5.38;;;16.30;99.90;;;;;;5032790;28;20048;-65
2021/09/12 01:16:25;;;;;;;10.60;5.20;;;16.30;99.90;;;;;;5033134;28;20025;-66
2021/09/12 01:18:51;;;;;;;10.80;5.35;;;16.30;99.90;;;;;;5033298;28;20033;-65
2021/09/12 01:21:19;;;;;;;6.75;4.78;;;16.30;99.90;;;;;;5032992;28;20045;-65
2021/09/12 01:23:46;;;;;;;6.20;5.05;;;16.30;99.90;;;;;;5031650;28;20029;-64
2021/09/12 01:26:12;;;;;;;8.60;4.93;;;16.20;99.90;;;;;;5031601;28;20028;-66
2021/09/12 01:28:42;;;;;;;12.85;6.53;;;16.20;99.90;;;;;;5033072;28;20018;-65
2021/09/12 01:31:22;;;;;;;8.70;6.00;;;16.10;99.90;;;;;;5033480;28;20036;-65
2021/09/12 01:33:47;;;;;;;5.97;5.38;;;16.10;99.90;;;;;;5033335;28;20447;-66
2021/09/12 01:36:14;;;;;;;10.63;7.28;;;16.10;99.90;;;;;;5032929;28;20045;-64
2021/09/12 01:38:39;;;;;;;7.35;5.75;;;16.10;99.90;;;;;;5032735;28;20045;-65
2021/09/12 01:41:05;;;;;;;7.38;5.38;;;16.10;99.90;;;;;;5032748;28;20488;-65
2021/09/12 01:43:31;;;;;;;8.57;5.10;;;16.10;99.90;;;;;;5032825;28;20043;-65
2021/09/12 01:45:56;;;;;;;6.10;4.88;;;16.00;99.90;;;;;;5032762;28;20298;-64
2021/09/12 01:48:22;;;;;;;10.80;7.30;;;16.00;99.90;;;;;;5032748;28;20033;-65
2021/09/12 01:50:48;;;;;;;5.88;4.93;;;16.00;99.90;;;;;;5032680;28;20077;-65
2021/09/12 01:53:13;;;;;;;8.32;5.15;;;16.00;99.90;;;;;;5032781;28;20037;-64
2021/09/12 01:55:39;;;;;;;5.25;4.75;;;16.00;99.90;;;;;;5032625;28;20044;-65
2021/09/12 01:58:05;;;;;;;7.85;5.32;;;15.90;99.90;;;;;;5032460;28;20390;-64
2021/09/12 02:00:30;;;;;;;6.10;5.00;;;15.90;99.90;;;;;;5032559;28;20145;-64
2021/09/12 02:02:58;;;;;;;7.15;4.57;;;16.00;99.90;;;;;;5032556;28;20029;-65
2021/09/12 02:05:24;;;;;;;7.03;6.32;;;16.30;99.90;;;;;;5032738;28;20417;-65
2021/09/12 02:07:50;;;;;;;6.15;4.85;;;16.40;99.90;;;;;;5032960;28;20040;-65
2021/09/12 02:10:15;;;;;;;9.47;5.10;;;16.40;99.90;;;;;;5032533;28;20029;-65
2021/09/12 02:12:41;;;;;;;6.57;5.03;;;16.30;99.90;;;;;;5032590;28;20036;-65
2021/09/12 02:15:07;;;;;;;6.35;5.45;;;16.30;99.90;;;;;;5032869;28;20034;-65
2021/09/12 02:17:33;;;;;;;5.25;4.75;;;16.10;99.90;;;;;;5032837;28;20108;-65
2021/09/12 02:19:58;;;;;;;10.73;6.63;;;16.00;99.90;;;;;;5032419;28;20558;-65
2021/09/12 02:22:24;;;;;;;8.10;5.50;;;15.90;99.90;;;;;;5033790;28;20017;-65
2021/09/12 02:24:49;;;;;;;5.82;4.15;;;15.80;99.90;;;;;;5033174;28;20026;-64
2021/09/12 02:27:15;;;;;;;8.45;4.90;;;15.90;99.90;;;;;;5035348;28;20026;-64
2021/09/12 02:29:40;;;;;;;6.47;4.57;;;15.80;99.90;;;;;;5036054;28;20033;-64
2021/09/12 02:32:06;;;;;;;5.32;4.47;;;15.70;99.90;;;;;;5035895;28;20022;-64
2021/09/12 02:34:32;;;;;;;5.47;4.85;;;15.70;99.90;;;;;;5036272;28;20022;-64
2021/09/12 02:36:57;;;;;;;10.45;5.70;;;15.60;99.90;;;;;;5036475;28;20417;-64
2021/09/12 02:39:23;;;;;;;6.30;5.03;;;15.60;99.90;;;;;;5035523;28;20160;-64
2021/09/12 02:41:49;;;;;;;6.17;5.03;;;15.60;99.90;;;;;;5035775;28;20256;-64
2021/09/12 02:44:14;;;;;;;8.40;4.57;;;15.50;99.90;;;;;;5037149;28;20267;-66
2021/09/12 02:46:40;;;;;;;9.77;5.75;;;15.50;99.90;;;;;;5035817;28;20311;-65
2021/09/12 02:49:06;;;;;;;7.10;4.97;;;15.50;99.90;;;;;;5036180;28;20482;-65
2021/09/12 02:51:31;;;;;;;5.70;5.10;;;15.50;99.90;;;;;;5036453;28;20026;-64
2021/09/12 02:53:57;;;;;;;9.83;5.13;;;15.40;99.90;;;;;;5036341;28;20283;-64
2021/09/12 02:56:22;;;;;;;10.20;5.07;;;15.40;99.90;;;;;;5036028;28;20287;-64
2021/09/12 02:58:48;;;;;;;8.48;5.18;;;15.40;99.90;;;;;;5035622;28;20056;-64
2021/09/12 03:01:14;;;;;;;6.65;5.05;;;15.50;99.90;;;;;;5035563;28;20017;-64
2021/09/12 03:03:39;;;;;;;4.90;4.40;;;15.50;99.90;;;;;;5035332;28;20025;-64
2021/09/12 03:06:05;;;;;;;7.85;4.53;;;15.50;99.90;;;;;;5035544;28;20021;-64
2021/09/12 03:08:31;;;;;;;6.05;4.90;;;15.40;99.90;;;;;;5035211;28;20033;-64
2021/09/12 03:10:57;;;;;;;8.30;4.93;;;15.40;99.90;;;;;;5035180;28;20104;-64
2021/09/12 03:13:22;;;;;;;6.57;4.53;;;15.40;99.90;;;;;;5035195;28;20268;-64
2021/09/12 03:15:48;;;;;;;6.37;4.60;;;15.30;99.90;;;;;;5035457;28;20084;-64
2021/09/12 03:18:13;;;;;;;5.67;4.77;;;15.30;99.90;;;;;;5034782;28;20272;-64
2021/09/12 03:20:39;;;;;;;6.35;4.70;;;15.30;99.90;;;;;;5034963;28;20330;-64
2021/09/12 03:23:05;;;;;;;5.55;4.47;;;15.30;99.90;;;;;;5033600;28;20129;-64
2021/09/12 03:25:31;;;;;;;6.00;4.97;;;15.30;99.90;;;;;;5034892;28;20028;-64
2021/09/12 03:27:57;;;;;;;6.57;4.60;;;15.30;99.90;;;;;;5034729;28;20034;-64
2021/09/12 03:30:23;;;;;;;6.75;4.63;;;15.30;99.90;;;;;;5034737;28;20021;-64
2021/09/12 03:32:49;;;;;;;6.30;4.72;;;15.30;99.90;;;;;;5033405;28;20145;-65
2021/09/12 03:35:14;;;;;;;7.88;4.70;;;15.20;99.90;;;;;;5034657;28;20026;-65
2021/09/12 03:37:40;;;;;;;8.70;4.85;;;15.20;99.90;;;;;;5034655;28;20029;-64
2021/09/12 03:40:07;;;;;;;9.73;5.35;;;15.20;99.90;;;;;;5034513;28;20033;-64
2021/09/12 03:42:33;;;;;;;5.78;4.75;;;15.20;99.90;;;;;;5033247;28;20492;-65
2021/09/12 03:44:59;;;;;;;7.70;4.30;;;15.20;99.90;;;;;;5034664;28;20038;-65
2021/09/12 03:47:24;;;;;;;6.37;4.43;;;15.20;99.90;;;;;;5034911;28;20275;-65
2021/09/12 03:49:50;;;;;;;6.37;4.70;;;15.20;99.90;;;;;;5034456;28;20272;-64
2021/09/12 03:52:16;;;;;;;6.43;4.88;;;15.20;99.90;;;;;;5034593;28;20029;-65
2021/09/12 03:54:41;;;;;;;5.07;4.35;;;15.20;99.90;;;;;;5034093;28;20091;-64
2021/09/12 03:57:07;;;;;;;5.80;4.17;;;15.20;99.90;;;;;;5034069;28;20025;-65
2021/09/12 03:59:33;;;;;;;6.93;4.00;;;15.10;99.90;;;;;;5032785;28;20815;-64
2021/09/12 04:01:58;;;;;;;5.53;4.32;;;15.30;99.90;;;;;;5034446;28;20029;-65
2021/09/12 04:04:24;;;;;;;4.57;4.05;;;15.30;99.90;;;;;;5034132;28;20096;-64
2021/09/12 04:06:49;;;;;;;5.53;3.88;;;15.20;99.90;;;;;;5034004;28;20462;-63
2021/09/12 04:09:15;;;;;;;5.27;3.83;;;15.20;99.90;;;;;;5034410;28;20036;-64
2021/09/12 04:11:41;;;;;;;6.47;4.67;;;15.20;99.90;;;;;;5033900;28;20267;-64
2021/09/12 04:14:06;;;;;;;5.55;4.75;;;15.10;99.90;;;;;;5034084;28;20279;-64
2021/09/12 04:16:33;;;;;;;5.68;4.18;;;15.10;99.90;;;;;;5033664;28;20375;-64
2021/09/12 04:18:58;;;;;;;6.18;3.97;;;15.10;99.90;;;;;;5034000;28;20037;-64
2021/09/12 04:21:24;;;;;;;6.83;4.43;;;15.00;99.90;;;;;;5033603;28;20032;-64
2021/09/12 04:23:49;;;;;;;7.53;4.65;;;15.00;99.90;;;;;;5033754;28;20256;-65
2021/09/12 04:26:15;;;;;;;5.15;4.07;;;15.00;99.90;;;;;;5033518;28;20047;-65
2021/09/12 04:28:41;;;;;;;6.10;4.32;;;14.90;99.90;;;;;;5033680;28;20104;-65
2021/09/12 04:31:07;;;;;;;4.63;4.03;;;14.90;99.90;;;;;;5033501;28;20038;-65
2021/09/12 04:33:32;;;;;;;6.18;4.32;;;14.90;99.90;;;;;;5033394;28;20386;-65
2021/09/12 04:35:58;;;;;;;4.80;4.28;;;14.90;99.90;;;;;;5033583;28;20026;-65
2021/09/12 04:38:23;;;;;;;5.05;4.30;;;15.00;99.90;;;;;;5033727;28;20068;-65
2021/09/12 04:40:49;;;;;;;5.65;4.28;;;14.90;99.90;;;;;;5033414;28;20478;-65
2021/09/12 04:43:15;;;;;;;5.47;4.00;;;14.90;99.90;;;;;;5033756;28;20024;-65
2021/09/12 04:45:41;;;;;;;4.53;3.80;;;14.90;99.90;;;;;;5033431;28;20112;-65
2021/09/12 04:48:07;;;;;;;4.35;3.90;;;14.80;99.90;;;;;;5033219;28;20097;-65
2021/09/12 04:50:33;;;;;;;4.95;3.85;;;14.80;99.90;;;;;;5032872;28;20455;-65
2021/09/12 04:52:58;;;;;;;5.50;3.90;;;14.80;99.90;;;;;;5033220;28;20026;-65
2021/09/12 04:55:24;;;;;;;5.35;4.20;;;14.80;99.90;;;;;;5031906;28;20398;-65
2021/09/12 04:57:50;;;;;;;6.75;4.10;;;14.80;99.90;;;;;;5033155;28;20477;-65
2021/09/12 05:00:15;;;;;;;5.03;3.55;;;14.80;99.90;;;;;;5033451;28;20033;-65
2021/09/12 05:02:41;;;;;;;4.72;3.63;;;14.80;99.90;;;;;;5031829;28;20053;-65
2021/09/12 05:05:07;;;;;;;4.70;3.55;;;14.80;99.90;;;;;;5033057;28;20035;-65
2021/09/12 05:07:33;;;;;;;5.75;3.90;;;14.80;99.90;;;;;;5032892;28;20044;-64
2021/09/12 05:09:58;;;;;;;5.50;3.47;;;14.80;99.90;;;;;;5031907;28;20033;-65
2021/09/12 05:12:24;;;;;;;6.07;3.77;;;14.80;99.90;;;;;;5033039;28;20495;-65
2021/09/12 05:14:50;;;;;;;5.72;3.47;;;14.80;99.90;;;;;;5033142;28;20274;-65
2021/09/12 05:17:16;;;;;;;6.72;3.50;;;14.80;99.90;;;;;;5033230;28;20033;-65
2021/09/12 05:19:41;;;;;;;8.13;3.67;;;14.80;99.90;;;;;;5032838;28;20061;-65
2021/09/12 05:22:07;;;;;;;5.82;4.05;;;14.80;99.90;;;;;;5032841;28;20033;-65
2021/09/12 05:24:33;;;;;;;5.28;3.70;;;14.80;99.90;;;;;;5032917;28;20025;-65
2021/09/12 05:26:59;;;;;;;4.47;3.47;;;14.80;99.90;;;;;;5032796;28;20055;-65
2021/09/12 05:29:24;;;;;;;5.57;3.67;;;14.80;99.90;;;;;;5034659;28;20057;-65
2021/09/12 05:31:51;;;;;;;4.33;3.53;;;14.80;99.90;;;;;;5032825;28;20280;-65
2021/09/12 05:34:17;;;;;;;8.40;3.65;;;14.80;99.90;;;;;;5033014;28;20486;-65
2021/09/12 05:36:43;;;;;;;6.15;3.90;;;14.80;99.90;;;;;;5033059;28;20037;-65
2021/09/12 05:39:08;;;;;;;4.72;3.60;;;14.80;99.90;;;;;;5031267;28;20128;-65
2021/09/12 05:41:34;;;;;;;4.65;3.55;;;14.80;99.90;;;;;;5032669;28;20032;-65
2021/09/12 05:44:00;;;;;;;19.45;3.90;;;14.80;99.90;;;;;;5032869;28;20036;-65
2021/09/12 05:46:25;;;;;;;8.07;3.88;;;14.80;99.90;;;;;;5032558;28;20021;-65
2021/09/12 05:48:51;;;;;;;6.07;3.63;;;14.80;99.90;;;;;;5032612;28;20060;-65
2021/09/12 05:51:17;;;;;;;4.33;3.77;;;14.80;99.90;;;;;;5031275;28;20025;-65
2021/09/12 05:53:42;;;;;;;3.63;3.25;;;14.80;99.90;;;;;;5032357;28;20033;-65
2021/09/12 05:56:08;;;;;;;3.88;3.22;;;14.80;99.90;;;;;;5033039;28;20130;-67
2021/09/12 05:58:34;;;;;;;5.53;3.30;;;14.80;99.90;;;;;;5032461;28;20025;-67
2021/09/12 06:00:59;;;;;;;5.07;3.90;;;14.80;99.90;;;;;;5033342;28;20030;-67
2021/09/12 06:03:25;;;;;;;5.75;3.38;;;14.80;99.90;;;;;;5036785;28;20025;-67
2021/09/12 06:05:51;;;;;;;4.20;3.80;;;14.80;99.90;;;;;;5036643;28;20559;-67
2021/09/12 06:08:16;;;;;;;6.35;3.40;;;14.80;99.90;;;;;;5035157;28;20021;-67
2021/09/12 06:10:42;;;;;;;6.33;3.60;;;14.80;99.90;;;;;;5036542;28;20489;-67
2021/09/12 06:13:08;;;;;;;4.72;3.63;;;14.90;99.90;;;;;;5036657;28;20052;-67
2021/09/12 06:15:33;;;;;;;4.83;3.53;;;14.90;99.90;;;;;;5036263;28;20033;-67
2021/09/12 06:17:59;;;;;;;4.70;3.53;;;14.90;99.90;;;;;;5035400;28;20264;-67
2021/09/12 06:20:24;;;;;;;4.73;3.47;;;15.00;99.90;;;;;;5036872;28;20033;-67
2021/09/12 06:22:51;;;;;;;6.82;4.60;;;15.00;99.90;;;;;;5037253;28;20279;-67
2021/09/12 06:25:17;;;;;;;5.38;3.60;;;15.00;99.90;;;;;;5035169;28;20022;-67
2021/09/12 06:27:43;;;;;;;5.10;3.45;;;15.00;99.90;;;;;;5036119;28;20025;-67
2021/09/12 06:30:10;;;;;;;5.18;3.83;;;15.00;99.90;;;;;;5035952;28;20453;-69
2021/09/12 06:32:36;;;;;;;5.70;3.25;;;15.10;99.90;;;;;;5034856;28;20037;-66
2021/09/12 06:35:03;;;;;;;6.57;3.67;;;15.10;99.90;;;;;;5036291;28;20078;-64
2021/09/12 06:37:29;;;;;;;7.00;3.58;;;15.20;99.90;;;;;;5036090;28;20109;-66
2021/09/12 06:39:54;;;;;;;3.60;3.23;;;15.20;99.90;;;;;;5036289;28;20144;-65
2021/09/12 06:42:20;;;;;;;4.80;3.30;;;15.30;99.90;;;;;;5034620;28;20322;-68
2021/09/12 06:44:46;;;;;;;5.53;3.47;;;15.40;99.90;;;;;;5034669;28;20037;-68
2021/09/12 06:47:12;;;;;;;5.97;3.55;;;15.60;99.90;;;;;;5035798;28;20014;-67
2021/09/12 06:49:37;;;;;;;4.57;3.63;;;15.60;99.90;;;;;;5036047;28;20037;-66
2021/09/12 06:52:04;;;;;;;5.38;3.50;;;15.80;99.90;;;;;;5035509;28;20032;-67
2021/09/12 06:54:29;;;;;;;5.00;3.92;;;15.80;99.90;;;;;;5035631;28;20029;-66
2021/09/12 06:56:55;;;;;;;6.10;4.75;;;15.70;99.90;;;;;;5035476;28;20021;-66
2021/09/12 06:59:21;;;;;;;5.88;3.47;;;15.70;99.90;;;;;;5035387;28;20083;-66
2021/09/12 07:01:46;;;;;;;4.40;3.72;;;15.90;99.90;;;;;;5035723;28;20021;-67
2021/09/12 07:04:12;;;;;;;4.75;3.80;;;15.90;99.90;;;;;;5035602;28;20104;-68
2021/09/12 07:06:38;;;;;;;5.15;3.45;;;16.20;99.90;;;;;;5038021;28;20026;-67
2021/09/12 07:09:04;;;;;;;4.57;3.40;;;16.10;99.90;;;;;;5035683;28;20033;-67
2021/09/12 07:11:29;;;;;;;7.65;4.10;;;16.10;99.90;;;;;;5035378;28;20033;-67
2021/09/12 07:13:55;;;;;;;5.72;4.00;;;16.10;99.90;;;;;;5035121;28;20394;-67
2021/09/12 07:16:21;;;;;;;4.18;3.22;;;16.10;99.90;;;;;;5035457;28;20394;-66
2021/09/12 07:18:46;;;;;;;4.57;2.88;;;16.10;99.90;;;;;;5034936;28;20083;-67
2021/09/12 07:21:12;;;;;;;4.38;3.00;;;16.20;99.90;;;;;;5033893;28;20112;-67
2021/09/12 07:23:38;;;;;;;5.00;3.05;;;16.30;99.90;;;;;;5035101;28;20029;-66
2021/09/12 07:26:04;;;;;;;3.33;2.85;;;16.30;99.90;;;;;;5034982;28;20036;-67
2021/09/12 07:28:30;;;;;;;3.90;2.85;;;16.40;99.90;;;;;;5034829;28;20036;-66
2021/09/12 07:30:56;;;;;;;4.97;2.97;;;16.40;99.90;;;;;;5034877;28;20033;-67
2021/09/12 07:33:21;;;;;;;3.20;2.80;;;16.60;99.90;;;;;;5034698;28;20030;-66
2021/09/12 07:35:47;;;;;;;3.97;2.65;;;17.00;99.90;;;;;;5034576;28;20104;-68
2021/09/12 07:38:13;;;;;;;5.75;3.28;;;17.10;99.90;;;;;;5034464;28;20034;-66
2021/09/12 07:40:39;;;;;;;4.80;3.20;;;17.30;99.90;;;;;;5034674;28;20108;-66
2021/09/12 07:43:04;;;;;;;3.58;2.90;;;17.20;99.90;;;;;;5034744;28;20029;-67
2021/09/12 07:45:30;;;;;;;3.13;2.63;;;17.20;99.90;;;;;;5034552;28;20394;-66
2021/09/12 07:47:56;;;;;;;4.63;2.83;;;17.40;99.90;;;;;;5034561;28;20429;-67
2021/09/12 07:50:22;;;;;;;4.60;3.00;;;17.30;99.90;;;;;;5034781;28;20057;-67
2021/09/12 07:52:47;;;;;;;5.68;3.05;;;17.30;99.90;;;;;;5035892;28;20112;-66
2021/09/12 07:55:14;;;;;;;5.72;2.88;;;17.30;99.90;;;;;;5033128;28;20030;-68
2021/09/12 07:57:41;;;;;;;3.33;2.95;;;17.30;99.90;;;;;;5034502;28;20109;-67
2021/09/12 08:00:08;;;;;;;4.85;3.00;;;17.40;99.90;;;;;;5034519;28;20029;-67
2021/09/12 08:02:34;;;;;;;3.97;3.00;;;17.60;99.90;;;;;;5034628;28;20029;-67
2021/09/12 08:05:00;;;;;;;3.90;2.80;;;17.60;99.90;;;;;;5034034;28;20025;-67
2021/09/12 08:07:26;;;;;;;4.68;3.08;;;17.70;99.90;;;;;;5032975;28;20033;-68
2021/09/12 08:09:59;;;;;;;5.25;3.03;;;18.00;99.90;;;;;;5034696;28;20034;-67
2021/09/12 08:12:25;;;;;;;5.03;3.20;;;18.20;99.90;;;;;;5034260;28;20025;-66
2021/09/12 08:14:50;;;;;;;3.80;2.67;;;18.10;99.90;;;;;;5034147;28;20036;-69
2021/09/12 08:17:16;;;;;;;5.28;3.13;;;18.10;99.90;;;;;;5034451;28;20030;-67
2021/09/12 08:19:42;;;;;;;3.60;2.92;;;18.20;99.90;;;;;;5033763;28;20025;-68
2021/09/12 08:22:07;;;;;;;6.43;3.22;;;18.20;99.90;;;;;;5033812;28;20509;-67
2021/09/12 08:24:33;;;;;;;3.00;2.70;;;18.20;99.90;;;;;;5033750;28;20021;-66
2021/09/12 08:26:59;;;;;;;3.90;2.90;;;18.30;99.90;;;;;;5033715;28;20101;-67
2021/09/12 08:29:25;;;;;;;3.38;2.47;;;18.40;99.90;;;;;;5033959;28;20075;-68
2021/09/12 08:31:50;;;;;;;2.85;2.30;;;18.60;99.90;;;;;;5033456;28;20390;-67
2021/09/12 08:34:17;;;;;;;3.47;2.70;;;18.70;99.90;;;;;;5033549;28;20025;-67
2021/09/12 08:36:43;;;;;;;3.38;2.50;;;18.80;99.90;;;;;;5033886;28;20040;-67
2021/09/12 08:39:09;;;;;;;3.67;2.47;;;18.80;99.90;;;;;;5031740;28;20033;-68
2021/09/12 08:41:35;;;;;;;4.03;2.85;;;19.00;99.90;;;;;;5032992;28;20021;-67
2021/09/12 08:44:01;;;;;;;3.17;2.80;;;19.40;99.90;;;;;;5032230;28;20053;-67
2021/09/12 08:46:27;;;;;;;;;;;21.20;99.90;;;;;;5033669;28;20029;-67
2021/09/12 08:48:52;;;;;;;3.67;2.15;;;23.60;99.90;;;;;;5033245;28;20353;-66
2021/09/12 08:51:18;;;;;;;;;;;26.40;97.10;;;;;;5033471;28;20394;-67
2021/09/12 08:53:43;;;;;;;3.50;2.00;;;28.20;93.10;;;;;;5033176;28;19904;-67
2021/09/12 08:56:09;;;;;;;3.63;2.33;;;29.80;90.20;;;;;;5033085;28;20041;-67
2021/09/12 08:58:35;;;;;;;2.58;1.65;;;29.20;88.60;;;;;;5032791;28;20017;-67
2021/09/12 09:01:02;;;;;;;3.28;1.63;;;31.50;85.10;;;;;;5033041;28;20033;-68
2021/09/12 09:03:35;;;;;;;2.53;1.50;;;32.30;80.50;;;;;;5032806;28;20071;-67
2021/09/12 09:06:19;;;;;;;2.35;1.90;;;33.50;75.80;;;;;;5033289;28;20068;-66
2021/09/12 09:08:52;;;;;;;2.95;1.60;;;35.00;71.80;;;;;;5032730;28;20573;-66
2021/09/12 09:11:35;;;;;;;2.70;1.77;;;36.20;68.00;;;;;;5033063;28;20032;-70
2021/09/12 09:14:27;;;;;;;2.40;1.80;;;36.90;64.30;;;;;;5031596;28;20163;-68
2021/09/12 09:16:53;;;;;;;2.63;2.40;;;37.50;62.10;;;;;;5030063;28;20458;-68
2021/09/12 09:19:19;;;;;;;2.28;1.70;;;38.30;60.10;;;;;;5033694;28;20087;-67
2021/09/12 09:21:48;;;;;;;3.40;1.63;;;39.00;57.90;;;;;;5032844;28;20028;-67
2021/09/12 09:24:25;;;;;;;2.30;1.50;;;38.80;57.10;;;;;;5032974;28;20013;-67
2021/09/12 09:26:56;;;;;;;4.07;1.58;;;39.10;54.50;;;;;;5032403;28;20421;-66
2021/09/12 09:29:27;;;;;;;1.90;1.75;;;38.70;55.30;;;;;;5033039;28;20026;-68
2021/09/12 09:32:09;;;;;;;6.60;3.33;;;37.50;54.80;;;;;;5032732;28;20049;-67
2021/09/12 09:34:39;;;;;;;3.83;1.92;;;38.00;55.20;;;;;;5033095;28;20084;-66
2021/09/12 09:37:12;;;;;;;4.40;2.00;;;38.10;56.60;;;;;;5036512;28;20033;-67
2021/09/12 09:39:43;;;;;;;4.93;2.40;;;39.40;53.80;;;;;;5036506;28;20398;-67
2021/09/12 09:42:33;;;;;;;3.38;1.70;;;40.00;52.70;;;;;;5036702;28;20021;-68
2021/09/12 09:45:11;;;;;;;2.85;1.92;;;40.20;50.50;;;;;;5036862;28;20021;-69
2021/09/12 09:47:38;;;;;;;2.92;1.95;;;40.00;51.60;;;;;;5036765;28;20018;-68
2021/09/12 09:50:08;;;;;;;2.50;1.60;;;41.00;52.00;;;;;;5036619;28;20049;-71
2021/09/12 09:52:34;;;;;;;2.10;1.52;;;41.80;49.60;;;;;;5036418;28;20025;-67
2021/09/12 09:55:01;;;;;;;2.63;1.55;;;40.70;49.50;;;;;;5036424;28;20084;-67
2021/09/12 09:57:27;;;;;;;2.65;1.63;;;39.70;49.50;;;;;;5035005;28;20021;-67
2021/09/12 09:59:52;;;;;;;2.10;1.70;;;37.70;50.90;;;;;;5036457;28;20136;-67
2021/09/12 10:02:19;;;;;;;2.45;1.60;;;37.80;52.00;;;;;;5034751;28;20049;-66
2021/09/12 10:04:45;;;;;;;2.58;1.42;;;38.00;51.40;;;;;;5036232;28;20064;-66
2021/09/12 10:07:12;;;;;;;3.30;1.80;;;38.10;52.00;;;;;;5036234;28;20031;-64
2021/09/12 10:09:38;;;;;;;4.22;1.85;;;38.80;51.40;;;;;;5036193;28;20025;-65
2021/09/12 10:12:08;;;;;;;2.67;1.60;;;39.60;50.00;;;;;;5036155;28;20076;-63
2021/09/12 10:14:46;;;;;;;2.72;1.70;;;39.30;49.70;;;;;;5035944;28;20027;-65
2021/09/12 10:17:14;;;;;;;2.80;1.63;;;39.20;49.90;;;;;;5036026;28;20117;-65
2021/09/12 10:19:43;;;;;;;3.67;1.80;;;39.70;49.30;;;;;;5036317;28;20512;-65
2021/09/12 10:22:18;;;;;;;2.67;1.50;;;40.20;48.80;;;;;;5036345;28;20017;-67
2021/09/12 10:25:15;;;;;;;5.70;1.80;;;40.80;48.30;;;;;;5035998;28;20115;-69
2021/09/12 10:27:45;;;;;;;1.90;1.50;;;40.50;48.20;;;;;;5023945;28;20536;-67
2021/09/12 10:30:21;;;;;;;3.72;1.50;;;40.10;48.10;;;;;;5034726;28;20526;-64
2021/09/12 10:32:46;;;;;;;2.30;1.70;;;39.60;49.00;;;;;;5036253;28;20052;-67
2021/09/12 10:35:28;;;;;;;1.85;1.58;;;39.40;49.50;;;;;;5035807;28;20072;-66
2021/09/12 10:38:00;;;;;;;1.75;1.30;;;40.20;48.60;;;;;;5036030;28;20090;-68
2021/09/12 10:40:49;;;;;;;1.92;1.50;;;41.00;48.30;;;;;;5036016;28;20025;-67
2021/09/12 10:43:26;;;;;;;2.63;1.83;;;41.70;46.90;;;;;;5035766;28;20378;-68
2021/09/12 10:46:04;;;;;;;3.03;1.75;;;41.60;47.00;;;;;;5035369;28;20402;-68
2021/09/12 10:48:35;;;;;;;2.83;1.60;;;40.70;47.40;;;;;;5035292;28;20035;-66
2021/09/12 10:51:10;;;;;;;6.53;2.00;;;40.30;47.60;;;;;;5035831;28;20028;-66
2021/09/12 10:53:45;;;;;;;2.63;1.65;;;38.60;49.20;;;;;;5035712;28;20072;-67
2021/09/12 10:56:15;;;;;;;1.80;1.58;;;36.80;50.80;;;;;;5035646;28;20028;-67
2021/09/12 10:58:41;;;;;;;2.65;1.60;;;35.00;52.90;;;;;;5035111;28;20105;-66
2021/09/12 11:01:08;;;;;;;2.00;1.70;;;33.40;54.30;;;;;;5035504;28;20104;-67
2021/09/12 11:03:35;;;;;;;3.00;1.73;;;32.50;56.30;;;;;;5035427;28;20048;-66
2021/09/12 11:06:01;;;;;;;4.45;1.50;;;31.80;57.00;;;;;;5035191;28;20072;-67
2021/09/12 11:08:38;;;;;;;4.10;1.80;;;30.80;58.50;;;;;;5035412;28;20026;-67
2021/09/12 11:11:05;;;;;;;3.03;1.50;;;29.90;59.90;;;;;;5035365;28;20049;-66
2021/09/12 11:13:31;;;;;;;3.88;1.60;;;29.00;61.60;;;;;;5035021;28;20017;-66
2021/09/12 11:16:06;;;;;;;2.50;1.77;;;28.40;62.50;;;;;;5035339;28;20022;-67
2021/09/12 11:18:48;;;;;;;5.57;1.60;;;27.70;64.20;;;;;;5034741;28;20068;-67
2021/09/12 11:21:31;;;;;;;5.65;1.80;;;27.30;65.60;;;;;;5034735;28;20022;-67
2021/09/12 11:24:22;;;;;;;1.88;1.70;;;27.00;65.50;;;;;;5036401;28;20379;-67
2021/09/12 11:27:05;;;;;;;3.83;1.90;;;26.40;66.50;;;;;;5034842;28;20022;-67
2021/09/12 11:29:33;;;;;;;2.20;1.98;;;26.00;67.90;;;;;;5034974;28;20033;-66
2021/09/12 11:32:04;;;;;;;2.20;1.50;;;25.50;69.10;;;;;;5034960;28;20470;-66
2021/09/12 11:34:32;;;;;;;2.63;2.15;;;25.10;69.90;;;;;;5035142;28;20071;-67
2021/09/12 11:37:05;;;;;;;4.55;1.83;;;25.00;70.80;;;;;;5034590;28;20383;-67
2021/09/12 11:39:32;;;;;;;3.28;1.95;;;24.90;70.70;;;;;;5034700;28;20394;-66
2021/09/12 11:42:00;;;;;;;4.65;2.00;;;24.80;71.00;;;;;;5034639;28;20152;-67
2021/09/12 11:44:43;;;;;;;3.15;1.83;;;24.80;72.20;;;;;;5034676;28;20475;-66
2021/09/12 11:47:12;;;;;;;2.92;1.60;;;24.80;71.70;;;;;;5033643;28;20485;-66
2021/09/12 11:49:39;;;;;;;2.47;1.92;;;24.80;70.70;;;;;;5034690;28;20032;-66
2021/09/12 11:52:05;;;;;;;2.53;1.60;;;24.40;70.40;;;;;;5034722;28;20040;-67
2021/09/12 11:54:37;;;;;;;;;;;24.20;71.50;;;;;;5035861;28;20057;-64
2021/09/12 11:57:06;;;;;;;3.53;1.85;;;24.10;72.40;;;;;;5034831;28;19912;-64
2021/09/12 11:59:40;;;;;;;2.90;1.92;;;24.10;73.20;;;;;;5033404;28;20104;-64
2021/09/12 12:02:10;;;;;;;4.03;1.83;;;24.10;73.10;;;;;;5034902;28;20111;-64
2021/09/12 12:04:39;;;;;;;3.15;1.65;;;24.20;73.20;;;;;;5035030;28;20022;-65
2021/09/12 12:07:05;;;;;;;3.03;1.73;;;24.20;73.10;;;;;;5035247;28;20097;-65
2021/09/12 12:09:38;;;;;;;;;;;24.10;72.60;;;;;;5035452;28;20105;-65
2021/09/12 12:12:08;;;;;;;2.38;1.50;;;24.10;73.10;;;;;;5034947;28;19928;-65
2021/09/12 12:14:53;;;;;;;3.33;2.53;;;24.30;72.60;;;;;;5034955;28;20101;-65
2021/09/12 12:17:21;;;;;;;5.43;1.70;;;24.20;72.70;;;;;;5034198;28;20029;-65
2021/09/12 12:19:47;;;;;;;4.60;1.95;;;24.20;72.80;;;;;;5034290;28;20083;-65
2021/09/12 12:22:14;;;;;;;1.83;1.67;;;24.10;73.60;;;;;;5033190;28;20036;-64
2021/09/12 12:24:54;;;;;;;2.33;1.50;;;24.20;73.40;;;;;;5034218;28;20080;-64
2021/09/12 12:27:19;;;;;;;2.00;1.63;;;24.40;72.00;;;;;;5034108;28;20030;-64
2021/09/12 12:29:54;;;;;;;;;;;24.40;72.60;;;;;;5034403;28;20104;-66
2021/09/12 12:32:19;;;;;;;2.20;1.45;;;24.50;72.20;;;;;;5033951;28;19916;-66
2021/09/12 12:34:48;;;;;;;;;;;24.70;72.70;;;;;;5034404;28;20026;-66
2021/09/12 12:37:16;;;;;;;2.22;1.30;;;24.70;71.50;;;;;;5033956;28;19955;-66
2021/09/12 12:39:42;;;;;;;2.55;1.63;;;24.90;71.90;;;;;;5034499;28;20034;-67
2021/09/12 12:42:09;;;;;;;2.00;1.45;;;24.90;71.60;;;;;;5034653;28;20033;-64
2021/09/12 12:44:43;;;;;;;1.85;1.40;;;24.70;72.10;;;;;;5034057;28;20013;-65
2021/09/12 12:47:09;;;;;;;3.30;1.50;;;24.70;72.00;;;;;;5034077;28;20028;-64
2021/09/12 12:49:35;;;;;;;;;;;24.80;71.20;;;;;;5034458;28;20025;-64